Liberty Townshp, Ohio
Current Conditions -  °F | °C
As of 8:53 PM on Wednesday 17 Dec 2014 (Local Time) from KHAO Reporting Station
Overcast Overcast  
Wind Chill: 21°   Ceiling: 1900
Heat Index: 29°   Visibility: 9mi
Dew Point: 22°   Wind: 8mph
Humidity: 75%   Direction: 310°NW
Pressure: 30.28"   Gusts: NA
Location:  39.3413°N, 84.4053°W
Report Text: KHAO 180153Z AUTO 31007KT 9SM OVC019 M02/M06 A3028 RMK AO2 SLP260 T10171056
Loading
Personal Weather Stations






























Interactive Weather Map New forecast layout! Learn more

10-Day Weather Forecast

Advertisements
Track Severe Weather on mobile